createdAt,value
2023-05-24T00:00:57.333Z,11.40
2023-05-24T00:03:25.480Z,11.40
2023-05-24T00:05:53.602Z,11.40
2023-05-24T00:08:21.701Z,11.40
2023-05-24T00:10:49.773Z,11.30
2023-05-24T00:13:17.874Z,11.30
2023-05-24T00:15:47.283Z,11.40
2023-05-24T00:18:17.728Z,11.30
2023-05-24T00:20:45.941Z,11.30
2023-05-24T00:23:14.438Z,11.30
2023-05-24T00:25:42.467Z,11.30
2023-05-24T00:28:10.527Z,11.30
2023-05-24T00:30:38.651Z,11.30
2023-05-24T00:33:08.096Z,11.30
2023-05-24T00:35:36.149Z,11.20
2023-05-24T00:38:04.213Z,11.30
2023-05-24T00:40:32.271Z,11.40
2023-05-24T00:43:00.322Z,11.30
2023-05-24T00:45:28.406Z,11.20
2023-05-24T00:47:56.502Z,11.20
2023-05-24T00:50:26.043Z,11.10
2023-05-24T00:52:54.894Z,11.10
2023-05-24T00:55:22.951Z,11.10
2023-05-24T00:57:52.392Z,11.20
2023-05-24T01:00:20.734Z,11.20
2023-05-24T01:02:51.532Z,11.20
2023-05-24T01:05:20.185Z,11.10
2023-05-24T01:08:03.775Z,11.10
2023-05-24T01:10:35.315Z,11.10
2023-05-24T01:13:11.762Z,11.00
2023-05-24T01:15:43.958Z,11.00
2023-05-24T01:18:17.498Z,10.90
2023-05-24T01:20:45.715Z,11.00
2023-05-24T01:23:42.016Z,11.00
2023-05-24T01:26:20.602Z,11.10
2023-05-24T01:28:50.392Z,11.00
2023-05-24T01:31:18.894Z,11.00
2023-05-24T01:33:46.992Z,10.90
2023-05-24T01:36:15.049Z,11.00
2023-05-24T01:38:43.114Z,11.00
2023-05-24T01:41:16.934Z,11.00
2023-05-24T01:43:47.911Z,11.00
2023-05-24T01:46:23.832Z,11.00
2023-05-24T01:48:55.923Z,10.90
2023-05-24T01:51:24.935Z,10.90
2023-05-24T01:53:52.968Z,11.00
2023-05-24T01:56:21.201Z,10.90
2023-05-24T01:58:50.253Z,10.90
2023-05-24T02:01:19.781Z,11.00
2023-05-24T02:03:47.864Z,11.00
2023-05-24T02:06:15.926Z,11.00
2023-05-24T02:08:43.956Z,11.00
2023-05-24T02:11:12.022Z,11.00
2023-05-24T02:13:40.054Z,11.00
2023-05-24T02:16:08.522Z,11.10
2023-05-24T02:18:38.053Z,11.00
2023-05-24T02:21:06.196Z,11.10
2023-05-24T02:23:34.246Z,11.10
2023-05-24T02:26:02.512Z,11.10
2023-05-24T02:28:32.428Z,11.10
2023-05-24T02:31:00.622Z,11.10
2023-05-24T02:33:29.997Z,11.10
2023-05-24T02:35:59.505Z,11.00
2023-05-24T02:38:27.617Z,11.00
2023-05-24T02:40:55.693Z,10.90
2023-05-24T02:43:23.841Z,10.90
2023-05-24T02:45:51.911Z,11.00
2023-05-24T02:48:19.990Z,10.90
2023-05-24T02:50:48.395Z,10.90
2023-05-24T02:53:17.891Z,11.10
2023-05-24T02:55:46.801Z,11.10
2023-05-24T02:58:17.757Z,11.10
2023-05-24T03:00:48.105Z,11.10
2023-05-24T03:03:16.556Z,11.10
2023-05-24T03:05:46.309Z,11.10
2023-05-24T03:08:14.984Z,11.10
2023-05-24T03:10:44.678Z,11.00
2023-05-24T03:13:14.097Z,11.10
2023-05-24T03:15:43.810Z,11.10
2023-05-24T03:18:11.911Z,10.90
2023-05-24T03:20:41.728Z,10.90
2023-05-24T03:23:10.742Z,10.90
2023-05-24T03:25:38.902Z,10.90
2023-05-24T03:28:08.434Z,10.90
2023-05-24T03:30:36.635Z,10.90
2023-05-24T03:33:04.896Z,10.90
2023-05-24T03:35:33.607Z,10.90
2023-05-24T03:38:01.726Z,11.00
2023-05-24T03:40:33.815Z,11.00
2023-05-24T03:43:14.801Z,11.00
2023-05-24T03:45:47.565Z,11.00
2023-05-24T03:48:15.864Z,11.00
2023-05-24T03:50:44.387Z,11.00
2023-05-24T03:53:12.815Z,11.10
2023-05-24T03:55:40.915Z,11.10
2023-05-24T03:58:09.060Z,11.10
2023-05-24T04:00:38.855Z,11.00
2023-05-24T04:03:07.330Z,11.00
2023-05-24T04:05:35.676Z,11.00
2023-05-24T04:08:04.368Z,11.10
2023-05-24T04:10:32.480Z,11.10
2023-05-24T04:13:00.890Z,11.10
2023-05-24T04:15:29.016Z,11.10
2023-05-24T04:17:58.713Z,11.10
2023-05-24T04:20:27.935Z,11.10
2023-05-24T04:22:56.396Z,11.10
2023-05-24T04:25:25.058Z,11.10
2023-05-24T04:27:53.625Z,11.10
2023-05-24T04:30:22.309Z,11.10
2023-05-24T04:32:51.555Z,11.10
2023-05-24T04:35:21.338Z,11.20
2023-05-24T04:37:50.437Z,11.20
2023-05-24T04:40:22.981Z,11.40
2023-05-24T04:42:51.562Z,11.40
2023-05-24T04:45:19.714Z,11.50
2023-05-24T04:47:47.927Z,11.60
2023-05-24T04:50:16.150Z,11.70
2023-05-24T04:52:45.956Z,11.70
2023-05-24T04:55:14.073Z,11.60
2023-05-24T04:57:42.209Z,11.50
2023-05-24T05:00:11.352Z,11.50
2023-05-24T05:02:39.577Z,11.70
2023-05-24T05:05:08.539Z,11.90
2023-05-24T05:07:36.645Z,11.70
2023-05-24T05:10:06.994Z,11.70
2023-05-24T05:12:35.106Z,11.60
2023-05-24T05:15:03.206Z,11.40
2023-05-24T05:17:31.371Z,11.40
2023-05-24T05:19:59.563Z,11.50
2023-05-24T05:22:29.396Z,11.50
2023-05-24T05:24:58.744Z,11.50
2023-05-24T05:27:28.206Z,11.40
2023-05-24T05:29:56.346Z,11.40
2023-05-24T05:32:24.591Z,11.40
2023-05-24T05:34:52.778Z,11.50
2023-05-24T05:37:20.936Z,11.70
2023-05-24T05:39:49.041Z,11.70
2023-05-24T05:42:17.117Z,11.70
2023-05-24T05:44:46.663Z,11.80
2023-05-24T05:47:14.747Z,12.10
2023-05-24T05:49:42.898Z,12.40
2023-05-24T05:52:11.645Z,12.90
2023-05-24T05:54:39.809Z,13.20
2023-05-24T05:57:10.661Z,13.50
2023-05-24T05:59:38.911Z,13.60
2023-05-24T06:02:08.715Z,14.00
2023-05-24T06:04:36.917Z,14.20
2023-05-24T06:07:06.470Z,14.30
2023-05-24T06:09:34.567Z,14.50
2023-05-24T06:12:02.668Z,14.40
2023-05-24T06:14:31.825Z,14.20
2023-05-24T06:17:00.384Z,14.10
2023-05-24T06:19:30.005Z,13.70
2023-05-24T06:21:58.122Z,13.60
2023-05-24T06:24:26.241Z,13.60
2023-05-24T06:26:54.351Z,13.90
2023-05-24T06:29:22.943Z,14.30
2023-05-24T06:31:51.405Z,14.70
2023-05-24T06:34:21.418Z,15.00
2023-05-24T06:36:53.004Z,15.20
2023-05-24T06:39:21.175Z,15.30
2023-05-24T06:41:51.441Z,15.10
2023-05-24T06:44:31.912Z,15.30
2023-05-24T06:47:00.230Z,15.60
2023-05-24T06:49:28.602Z,15.30
2023-05-24T06:51:58.086Z,15.00
2023-05-24T06:54:26.178Z,15.00
2023-05-24T06:56:54.297Z,14.80
2023-05-24T06:59:23.750Z,14.50
2023-05-24T07:01:58.224Z,14.40
2023-05-24T07:04:28.503Z,14.60
2023-05-24T07:06:58.537Z,14.60
2023-05-24T07:09:26.781Z,14.70
2023-05-24T07:11:54.908Z,14.80
2023-05-24T07:14:26.091Z,15.00
2023-05-24T07:16:57.476Z,15.20
2023-05-24T07:19:29.208Z,15.00
2023-05-24T07:21:58.933Z,15.20
2023-05-24T07:24:27.093Z,15.20
2023-05-24T07:26:56.856Z,14.80
2023-05-24T07:29:25.248Z,14.80
2023-05-24T07:31:55.961Z,14.70
2023-05-24T07:34:27.569Z,14.70
2023-05-24T07:36:55.750Z,14.70
2023-05-24T07:39:25.396Z,14.70
2023-05-24T07:41:53.634Z,14.80
2023-05-24T07:44:21.795Z,14.60
2023-05-24T07:46:50.058Z,14.60
2023-05-24T07:49:18.221Z,14.60
2023-05-24T07:51:46.633Z,14.60
2023-05-24T07:54:14.767Z,14.70
2023-05-24T07:56:44.657Z,14.80
2023-05-24T07:59:12.965Z,15.10
2023-05-24T08:01:41.490Z,14.60
2023-05-24T08:04:10.566Z,14.80
2023-05-24T08:06:39.132Z,14.80
2023-05-24T08:09:08.574Z,14.90
2023-05-24T08:11:36.673Z,14.90
2023-05-24T08:14:06.115Z,14.70
2023-05-24T08:16:34.237Z,14.70
2023-05-24T08:19:02.353Z,14.60
2023-05-24T08:21:30.439Z,14.70
2023-05-24T08:23:58.580Z,14.80
2023-05-24T08:26:27.039Z,14.90
2023-05-24T08:28:55.146Z,14.90
2023-05-24T08:31:24.652Z,14.80
2023-05-24T08:33:53.303Z,14.70
2023-05-24T08:36:21.387Z,14.70
2023-05-24T08:38:49.479Z,14.70
2023-05-24T08:41:17.586Z,14.50
2023-05-24T08:43:45.778Z,14.60
2023-05-24T08:46:13.976Z,14.70
2023-05-24T08:48:46.682Z,14.90
2023-05-24T08:51:15.937Z,14.80
2023-05-24T08:53:49.024Z,14.60
2023-05-24T08:56:18.474Z,14.70
2023-05-24T08:58:47.443Z,14.70
2023-05-24T09:01:16.131Z,14.80
2023-05-24T09:03:46.301Z,14.90
2023-05-24T09:06:14.835Z,14.80
2023-05-24T09:08:43.988Z,14.70
2023-05-24T09:11:12.318Z,14.90
2023-05-24T09:13:40.693Z,14.90
2023-05-24T09:16:09.185Z,14.80
2023-05-24T09:18:37.258Z,15.00
2023-05-24T09:21:08.236Z,15.00
2023-05-24T09:23:36.395Z,15.10
2023-05-24T09:26:08.547Z,14.90
2023-05-24T09:28:36.671Z,15.10
2023-05-24T09:31:07.822Z,15.10
2023-05-24T09:33:36.210Z,15.40
2023-05-24T09:36:06.293Z,15.50
2023-05-24T09:38:36.673Z,15.70
2023-05-24T09:41:06.533Z,15.90
2023-05-24T09:43:36.333Z,15.90
2023-05-24T09:46:04.841Z,16.00
2023-05-24T09:48:33.149Z,16.10
2023-05-24T09:51:04.534Z,16.20
2023-05-24T09:53:35.073Z,16.10
2023-05-24T09:56:05.215Z,16.20
2023-05-24T09:58:34.042Z,16.20
2023-05-24T10:01:06.705Z,16.30
2023-05-24T10:03:35.102Z,16.60
2023-05-24T10:06:05.000Z,17.00
2023-05-24T10:08:34.868Z,17.10
2023-05-24T10:11:03.923Z,16.80
2023-05-24T10:13:32.408Z,16.60
2023-05-24T10:16:00.570Z,16.70
2023-05-24T10:18:28.700Z,16.70
2023-05-24T10:20:57.073Z,16.60
2023-05-24T10:23:25.250Z,16.80
2023-05-24T10:25:57.681Z,17.10
2023-05-24T10:28:25.769Z,16.90
2023-05-24T10:31:00.624Z,17.00
2023-05-24T10:33:28.817Z,17.10
2023-05-24T10:35:56.916Z,17.40
2023-05-24T10:38:25.068Z,17.50
2023-05-24T10:40:57.610Z,17.40
2023-05-24T10:43:25.785Z,17.50
2023-05-24T10:45:53.948Z,18.10
2023-05-24T10:48:41.009Z,18.10
2023-05-24T10:51:34.882Z,18.00
2023-05-24T10:54:13.800Z,18.40
2023-05-24T10:56:44.281Z,18.10
2023-05-24T10:59:23.259Z,17.90
2023-05-24T11:01:56.775Z,18.10
2023-05-24T11:04:24.957Z,19.00
2023-05-24T11:06:56.376Z,18.90
2023-05-24T11:09:24.555Z,18.70
2023-05-24T11:11:56.346Z,18.60
2023-05-24T11:14:25.557Z,18.40
2023-05-24T11:16:53.761Z,18.30
2023-05-24T11:19:22.925Z,18.50
2023-05-24T11:21:51.716Z,18.40
2023-05-24T11:24:20.131Z,18.30
2023-05-24T11:26:48.299Z,18.30
2023-05-24T11:29:21.024Z,18.40
2023-05-24T11:31:50.873Z,18.10
2023-05-24T11:34:19.156Z,18.20
2023-05-24T11:36:47.672Z,18.50
2023-05-24T11:39:16.381Z,18.90
2023-05-24T11:41:44.692Z,19.20
2023-05-24T11:44:13.027Z,19.30
2023-05-24T11:46:42.775Z,19.40
2023-05-24T11:49:13.828Z,19.40
2023-05-24T11:51:41.925Z,18.80
2023-05-24T11:54:10.050Z,18.70
2023-05-24T11:56:38.147Z,18.30
2023-05-24T11:59:16.588Z,18.40
2023-05-24T12:01:46.001Z,18.40
2023-05-24T12:04:14.188Z,18.10
2023-05-24T12:06:42.863Z,18.40
2023-05-24T12:09:13.349Z,18.50
2023-05-24T12:11:42.261Z,18.40
2023-05-24T12:14:13.725Z,18.30
2023-05-24T12:16:43.000Z,18.30
2023-05-24T12:19:31.652Z,18.50
2023-05-24T12:22:01.158Z,18.20
2023-05-24T12:24:29.317Z,18.10
2023-05-24T12:27:00.167Z,18.10
2023-05-24T12:29:28.589Z,18.10
2023-05-24T12:31:56.717Z,18.30
2023-05-24T12:34:26.238Z,18.20
2023-05-24T12:36:54.409Z,18.50
2023-05-24T12:39:23.275Z,18.50
2023-05-24T12:41:52.179Z,18.20
2023-05-24T12:44:25.220Z,18.50
2023-05-24T12:46:54.559Z,18.50
2023-05-24T12:49:22.895Z,18.50
2023-05-24T12:51:52.860Z,18.60
2023-05-24T12:54:23.005Z,18.30
2023-05-24T12:56:53.466Z,18.50
2023-05-24T12:59:23.292Z,18.60
2023-05-24T13:01:52.527Z,18.70
2023-05-24T13:04:21.798Z,18.80
2023-05-24T13:06:49.909Z,19.00
2023-05-24T13:09:21.715Z,18.80
2023-05-24T13:11:50.169Z,18.80
2023-05-24T13:14:18.429Z,18.60
2023-05-24T13:16:46.611Z,18.50
2023-05-24T13:19:14.818Z,18.70
2023-05-24T13:21:43.034Z,18.70
2023-05-24T13:24:11.174Z,19.10
2023-05-24T13:26:40.695Z,18.90
2023-05-24T13:29:32.402Z,18.70
2023-05-24T13:31:56.856Z,18.60
2023-05-24T13:34:25.889Z,18.80
2023-05-24T13:36:54.115Z,18.90
2023-05-24T13:39:22.357Z,19.00
2023-05-24T13:41:51.838Z,19.10
2023-05-24T13:44:19.965Z,19.10
2023-05-24T13:46:48.112Z,19.10
2023-05-24T13:49:16.196Z,19.10
2023-05-24T13:51:44.300Z,19.20
2023-05-24T13:54:12.625Z,19.20
2023-05-24T13:56:40.727Z,19.20
2023-05-24T13:59:10.136Z,18.90
2023-05-24T14:01:39.381Z,19.70
2023-05-24T14:04:07.962Z,20.00
2023-05-24T14:06:37.675Z,20.20
2023-05-24T14:09:07.098Z,20.10
2023-05-24T14:11:35.262Z,20.10
2023-05-24T14:16:37.067Z,19.70
2023-05-24T14:19:05.692Z,19.70
2023-05-24T14:21:33.880Z,19.90
2023-05-24T14:24:01.999Z,19.80
2023-05-24T14:26:30.070Z,20.00
2023-05-24T14:28:58.483Z,20.60
2023-05-24T14:31:26.570Z,20.20
2023-05-24T14:33:56.037Z,20.00
2023-05-24T14:36:24.098Z,20.10
2023-05-24T14:38:52.335Z,19.90
2023-05-24T14:41:20.664Z,19.90
2023-05-24T14:43:48.968Z,20.30
2023-05-24T14:46:17.138Z,20.80
2023-05-24T14:48:45.266Z,20.50
2023-05-24T14:51:14.694Z,20.20
2023-05-24T14:53:42.790Z,20.20
2023-05-24T14:56:10.901Z,20.70
2023-05-24T14:58:38.995Z,20.60
2023-05-24T15:01:08.225Z,20.40
2023-05-24T15:03:36.612Z,20.30
2023-05-24T15:06:05.535Z,20.40
2023-05-24T15:08:35.782Z,20.60
2023-05-24T15:11:05.151Z,21.10
2023-05-24T15:13:33.698Z,21.40
2023-05-24T15:16:01.862Z,21.70
2023-05-24T15:18:31.686Z,22.10
2023-05-24T15:20:59.849Z,22.20
2023-05-24T15:23:28.499Z,22.60
2023-05-24T15:25:57.959Z,22.00
2023-05-24T15:28:26.782Z,21.80
2023-05-24T15:30:55.217Z,22.10
2023-05-24T15:33:23.388Z,21.90
2023-05-24T15:35:51.500Z,21.70
2023-05-24T15:38:19.599Z,22.00
2023-05-24T15:40:47.701Z,21.90
2023-05-24T15:43:19.160Z,22.40
2023-05-24T15:45:47.417Z,22.40
2023-05-24T15:48:15.600Z,22.60
2023-05-24T15:51:09.209Z,22.70
2023-05-24T15:53:32.651Z,22.60
2023-05-24T15:56:00.851Z,23.00
2023-05-24T15:58:30.325Z,23.00
2023-05-24T16:00:58.390Z,23.30
2023-05-24T16:03:26.766Z,23.70
2023-05-24T16:05:54.967Z,23.80
2023-05-24T16:08:27.870Z,22.90
2023-05-24T16:10:56.289Z,22.60
2023-05-24T16:13:24.444Z,23.30
2023-05-24T16:15:53.900Z,23.10
2023-05-24T16:18:22.988Z,22.50
2023-05-24T16:20:51.785Z,22.40
2023-05-24T16:23:23.064Z,22.50
2023-05-24T16:25:51.522Z,22.10
2023-05-24T16:28:23.933Z,22.10
2023-05-24T16:30:56.050Z,21.50
2023-05-24T16:33:24.791Z,21.90
2023-05-24T16:35:56.201Z,22.60
2023-05-24T16:38:24.620Z,22.50
2023-05-24T16:40:52.748Z,22.10
2023-05-24T16:43:21.596Z,22.20
2023-05-24T16:45:49.936Z,22.10
2023-05-24T16:48:21.412Z,22.10
2023-05-24T16:50:50.511Z,21.90
2023-05-24T16:53:20.462Z,21.40
2023-05-24T16:55:53.606Z,21.40
2023-05-24T16:58:21.711Z,21.20
2023-05-24T17:00:49.802Z,21.10
2023-05-24T17:03:22.131Z,20.90
2023-05-24T17:05:50.423Z,20.90
2023-05-24T17:08:19.003Z,20.90
2023-05-24T17:10:47.059Z,20.80
2023-05-24T17:13:15.156Z,20.70
2023-05-24T17:15:43.241Z,20.80
2023-05-24T17:18:11.575Z,20.80
2023-05-24T17:20:41.219Z,20.60
2023-05-24T17:23:09.702Z,20.60
2023-05-24T17:25:37.774Z,20.50
2023-05-24T17:28:05.876Z,20.40
2023-05-24T17:30:33.937Z,20.00
2023-05-24T17:33:02.050Z,20.00
2023-05-24T17:35:30.135Z,19.90
2023-05-24T17:37:59.594Z,19.80
2023-05-24T17:40:27.749Z,19.80
2023-05-24T17:42:55.938Z,19.70
2023-05-24T17:45:24.030Z,19.60
2023-05-24T17:47:52.166Z,19.50
2023-05-24T17:50:20.268Z,19.50
2023-05-24T17:52:48.330Z,19.40
2023-05-24T17:55:17.990Z,19.40
2023-05-24T17:57:46.189Z,19.20
2023-05-24T18:00:15.107Z,19.20
2023-05-24T18:02:47.029Z,19.10
2023-05-24T18:05:16.089Z,19.00
2023-05-24T18:07:44.229Z,18.90
2023-05-24T18:10:12.865Z,18.80
2023-05-24T18:12:42.723Z,18.70
2023-05-24T18:15:11.642Z,18.70
2023-05-24T18:17:39.752Z,18.70
2023-05-24T18:20:08.518Z,18.60
2023-05-24T18:22:36.861Z,18.60
2023-05-24T18:25:05.260Z,18.50
2023-05-24T18:27:33.357Z,18.40
2023-05-24T18:30:03.936Z,18.30
2023-05-24T18:32:32.167Z,18.30
2023-05-24T18:35:00.333Z,18.20
2023-05-24T18:37:28.421Z,18.10
2023-05-24T18:39:56.501Z,18.10
2023-05-24T18:42:24.600Z,18.00
2023-05-24T18:44:52.671Z,18.00
2023-05-24T18:47:22.166Z,18.00
2023-05-24T18:49:50.251Z,17.90
2023-05-24T18:52:18.809Z,17.80
2023-05-24T18:54:46.873Z,17.80
2023-05-24T18:57:14.984Z,17.70
2023-05-24T18:59:43.031Z,17.60
2023-05-24T19:02:11.190Z,17.60
2023-05-24T19:04:40.700Z,17.50
2023-05-24T19:07:09.104Z,17.40
2023-05-24T19:09:37.175Z,17.40
2023-05-24T19:12:05.882Z,17.40
2023-05-24T19:14:34.001Z,17.30
2023-05-24T19:17:02.244Z,17.30
2023-05-24T19:19:30.551Z,17.20
2023-05-24T19:22:00.012Z,17.20
2023-05-24T19:24:28.103Z,17.10
2023-05-24T19:26:56.267Z,17.10
2023-05-24T19:29:24.366Z,17.10
2023-05-24T19:31:52.474Z,17.00
2023-05-24T19:34:20.695Z,16.90
2023-05-24T19:36:48.784Z,16.90
2023-05-24T19:39:18.268Z,16.80
2023-05-24T19:41:46.393Z,16.70
2023-05-24T19:44:14.539Z,16.70
2023-05-24T19:46:42.693Z,16.60
2023-05-24T19:49:12.272Z,16.50
2023-05-24T19:51:40.421Z,16.40
2023-05-24T19:54:09.355Z,16.30
2023-05-24T19:56:38.877Z,16.30
2023-05-24T19:59:07.456Z,16.20
2023-05-24T20:01:35.856Z,16.10
2023-05-24T20:04:04.115Z,16.20
2023-05-24T20:06:33.215Z,16.10
2023-05-24T20:09:01.311Z,16.10
2023-05-24T20:11:29.436Z,16.10
2023-05-24T20:13:59.027Z,16.00
2023-05-24T20:16:27.229Z,15.80
2023-05-24T20:18:55.454Z,15.80
2023-05-24T20:21:23.599Z,15.70
2023-05-24T20:23:57.622Z,15.70
2023-05-24T20:26:26.568Z,15.60
2023-05-24T20:28:54.740Z,15.50
2023-05-24T20:31:24.263Z,15.40
2023-05-24T20:33:52.992Z,15.40
2023-05-24T20:36:22.215Z,15.30
2023-05-24T20:38:50.451Z,15.30
2023-05-24T20:41:18.539Z,15.20
2023-05-24T20:43:46.754Z,15.20
2023-05-24T20:46:14.974Z,15.20
2023-05-24T20:48:45.022Z,15.10
2023-05-24T20:51:13.117Z,15.10
2023-05-24T20:53:41.359Z,15.10
2023-05-24T20:56:09.481Z,15.10
2023-05-24T20:58:37.632Z,15.00
2023-05-24T21:01:05.757Z,15.00
2023-05-24T21:03:34.013Z,15.00
2023-05-24T21:06:03.505Z,14.90
2023-05-24T21:08:32.124Z,14.90
2023-05-24T21:11:00.180Z,14.80
2023-05-24T21:13:28.333Z,14.80
2023-05-24T21:15:56.390Z,14.80
2023-05-24T21:18:24.488Z,14.70
2023-05-24T21:20:52.584Z,14.60
2023-05-24T21:23:22.046Z,14.60
2023-05-24T21:25:50.137Z,14.60
2023-05-24T21:28:18.238Z,14.60
2023-05-24T21:30:46.363Z,14.60
2023-05-24T21:33:14.425Z,14.60
2023-05-24T21:35:42.741Z,14.50
2023-05-24T21:38:11.037Z,14.50
2023-05-24T21:40:40.727Z,14.50
2023-05-24T21:43:12.192Z,14.40
2023-05-24T21:45:40.389Z,14.40
2023-05-24T21:48:08.683Z,14.40
2023-05-24T21:50:36.825Z,14.40
2023-05-24T21:53:04.879Z,14.40
2023-05-24T21:55:32.972Z,14.40
2023-05-24T21:58:02.393Z,14.50
2023-05-24T22:00:30.667Z,14.40
2023-05-24T22:02:58.957Z,14.30
2023-05-24T22:05:42.860Z,14.30
2023-05-24T22:08:11.865Z,14.20
2023-05-24T22:10:39.953Z,14.00
2023-05-24T22:13:09.448Z,14.10
2023-05-24T22:15:37.496Z,14.10
2023-05-24T22:18:05.941Z,14.10
2023-05-24T22:20:34.272Z,14.10
2023-05-24T22:23:02.992Z,14.10
2023-05-24T22:25:31.077Z,14.00
2023-05-24T22:27:59.169Z,14.00
2023-05-24T22:30:30.129Z,13.90
2023-05-24T22:32:58.253Z,13.80
2023-05-24T22:35:26.504Z,13.70
2023-05-24T22:37:54.631Z,13.70
2023-05-24T22:40:22.745Z,13.60
2023-05-24T22:42:50.847Z,13.60
2023-05-24T22:45:19.304Z,13.50
2023-05-24T22:47:49.290Z,13.50
2023-05-24T22:50:17.588Z,13.40
2023-05-24T22:52:46.757Z,13.40
2023-05-24T22:55:14.870Z,13.30
2023-05-24T22:57:42.936Z,13.20
2023-05-24T23:00:12.270Z,13.20
2023-05-24T23:02:40.378Z,13.10
2023-05-24T23:05:11.627Z,13.10
2023-05-24T23:07:40.000Z,13.00
2023-05-24T23:10:09.469Z,13.10
2023-05-24T23:12:37.568Z,13.00
2023-05-24T23:15:06.629Z,12.90
2023-05-24T23:17:34.826Z,12.90
2023-05-24T23:20:05.210Z,13.00
2023-05-24T23:22:37.622Z,13.00
2023-05-24T23:25:06.514Z,12.90
2023-05-24T23:27:34.612Z,12.90
2023-05-24T23:30:02.672Z,12.90
2023-05-24T23:32:30.892Z,12.90
2023-05-24T23:34:58.948Z,12.80
2023-05-24T23:37:27.093Z,12.80
2023-05-24T23:39:56.705Z,12.80
2023-05-24T23:42:24.801Z,12.80
2023-05-24T23:44:52.868Z,12.70
2023-05-24T23:47:21.233Z,12.70
2023-05-24T23:49:49.301Z,12.60
2023-05-24T23:52:17.391Z,12.50
2023-05-24T23:54:45.524Z,12.50
2023-05-24T23:57:15.060Z,12.50
2023-05-24T23:59:43.256Z,12.40
